createdAt,value
2022-09-04T00:04:50.234Z,2.50
2022-09-04T00:10:27.462Z,2.95
2022-09-04T00:15:36.350Z,2.70
2022-09-04T00:20:43.057Z,2.88
2022-09-04T00:25:57.619Z,3.05
2022-09-04T00:31:13.300Z,2.88
2022-09-04T00:36:17.389Z,3.28
2022-09-04T00:41:19.191Z,2.83
2022-09-04T00:46:42.703Z,2.72
2022-09-04T00:51:53.625Z,2.95
2022-09-04T00:57:34.114Z,2.30
2022-09-04T01:02:57.236Z,2.92
2022-09-04T01:08:07.774Z,2.67
2022-09-04T01:18:51.991Z,3.40
2022-09-04T01:24:09.315Z,3.08
2022-09-04T01:29:34.318Z,3.38
2022-09-04T01:35:05.244Z,3.45
2022-09-04T01:40:35.628Z,3.45
2022-09-04T01:46:33.259Z,3.65
2022-09-04T01:52:13.037Z,5.30
2022-09-04T01:57:33.386Z,3.50
2022-09-04T02:02:53.299Z,3.70
2022-09-04T02:08:18.138Z,3.33
2022-09-04T02:13:29.541Z,3.80
2022-09-04T02:18:44.447Z,3.45
2022-09-04T02:24:06.374Z,3.17
2022-09-04T02:29:26.206Z,3.60
2022-09-04T02:34:47.068Z,3.50
2022-09-04T02:45:05.372Z,3.65
2022-09-04T02:50:41.281Z,3.83
2022-09-04T02:56:09.510Z,4.03
2022-09-04T03:01:22.496Z,3.47
2022-09-04T03:06:44.586Z,3.17
2022-09-04T03:11:55.604Z,3.83
2022-09-04T03:17:20.346Z,3.50
2022-09-04T03:22:24.627Z,3.47
2022-09-04T03:27:27.690Z,3.72
2022-09-04T03:32:56.971Z,3.60
2022-09-04T03:38:17.136Z,3.75
2022-09-04T03:43:32.828Z,3.30
2022-09-04T03:49:00.457Z,3.20
2022-09-04T03:54:12.293Z,3.38
2022-09-04T03:59:25.851Z,3.72
2022-09-04T04:04:56.334Z,3.90
2022-09-04T04:10:23.092Z,4.00
2022-09-04T04:15:42.172Z,3.15
2022-09-04T04:20:54.376Z,3.35
2022-09-04T04:26:24.165Z,3.53
2022-09-04T04:31:44.778Z,3.72
2022-09-04T04:37:07.556Z,3.53
2022-09-04T04:42:31.409Z,3.42
2022-09-04T04:47:48.752Z,3.55
2022-09-04T04:52:50.552Z,3.58
2022-09-04T04:58:15.680Z,3.97
2022-09-04T05:04:00.825Z,3.88
2022-09-04T05:09:14.913Z,3.50
2022-09-04T05:15:05.035Z,4.50
2022-09-04T05:20:47.245Z,4.80
2022-09-04T05:26:06.628Z,4.38
2022-09-04T05:31:28.843Z,3.85
2022-09-04T05:36:42.859Z,3.42
2022-09-04T05:42:23.222Z,4.10
2022-09-04T05:47:35.575Z,3.75
2022-09-04T05:52:55.579Z,4.05
2022-09-04T05:58:08.525Z,3.00
2022-09-04T06:03:49.974Z,3.78
2022-09-04T06:08:51.761Z,3.72
2022-09-04T06:14:22.607Z,3.33
2022-09-04T06:19:27.443Z,3.92
2022-09-04T06:25:09.272Z,3.78
2022-09-04T06:30:15.321Z,3.50
2022-09-04T06:35:51.801Z,3.03
2022-09-04T06:41:29.721Z,3.38
2022-09-04T06:46:42.926Z,3.60
2022-09-04T06:52:11.199Z,3.28
2022-09-04T06:57:38.691Z,3.30
2022-09-04T07:02:59.794Z,3.53
2022-09-04T07:08:22.362Z,3.60
2022-09-04T07:13:46.106Z,3.67
2022-09-04T07:19:14.186Z,3.78
2022-09-04T07:24:29.846Z,3.20
2022-09-04T07:29:45.386Z,3.80
2022-09-04T07:35:05.049Z,3.70
2022-09-04T07:40:10.189Z,3.25
2022-09-04T07:45:27.926Z,3.00
2022-09-04T07:50:35.610Z,3.35
2022-09-04T07:55:46.882Z,3.80
2022-09-04T08:01:06.962Z,3.70
2022-09-04T08:06:20.861Z,3.27
2022-09-04T08:12:25.761Z,3.90
2022-09-04T08:17:33.365Z,3.70
2022-09-04T08:22:58.929Z,3.30
2022-09-04T08:28:17.779Z,3.60
2022-09-04T08:33:51.234Z,3.28
2022-09-04T08:39:10.059Z,3.80
2022-09-04T08:44:54.101Z,3.25
2022-09-04T08:50:27.623Z,3.00
2022-09-04T08:55:47.411Z,3.08
2022-09-04T09:01:22.985Z,3.25
2022-09-04T09:07:02.505Z,3.28
2022-09-04T09:12:19.476Z,3.00
2022-09-04T09:17:26.164Z,2.75
2022-09-04T09:23:17.920Z,3.28
2022-09-04T09:28:35.757Z,3.10
2022-09-04T09:33:58.655Z,3.20
2022-09-04T09:39:28.386Z,3.00
2022-09-04T09:45:04.429Z,2.65
2022-09-04T09:50:12.978Z,2.78
2022-09-04T09:55:38.315Z,2.55
2022-09-04T10:00:59.147Z,3.03
2022-09-04T10:06:25.696Z,2.85
2022-09-04T10:11:45.915Z,2.83
2022-09-04T10:17:16.072Z,2.70
2022-09-04T10:22:57.505Z,3.30
2022-09-04T10:28:26.113Z,2.70
2022-09-04T10:33:46.664Z,2.38
2022-09-04T10:39:35.821Z,3.00
2022-09-04T10:44:55.246Z,2.78
2022-09-04T10:50:07.680Z,2.50
2022-09-04T10:55:31.574Z,2.70
2022-09-04T11:00:52.433Z,2.42
2022-09-04T11:06:25.995Z,2.60
2022-09-04T11:11:40.739Z,2.90
2022-09-04T11:16:45.436Z,2.80
2022-09-04T11:22:12.778Z,2.38
2022-09-04T11:27:31.066Z,2.20
2022-09-04T11:32:51.923Z,2.25
2022-09-04T11:38:08.873Z,2.33
2022-09-04T11:43:16.622Z,2.55
2022-09-04T11:48:47.662Z,2.40
2022-09-04T11:59:31.824Z,2.05
2022-09-04T12:04:39.538Z,2.47
2022-09-04T12:09:51.526Z,1.75
2022-09-04T12:15:29.905Z,2.03
2022-09-04T12:20:48.037Z,2.20
2022-09-04T12:26:14.234Z,2.38
2022-09-04T12:31:34.953Z,2.67
2022-09-04T12:42:07.384Z,2.15
2022-09-04T12:47:16.589Z,2.42
2022-09-04T12:52:33.718Z,2.70
2022-09-04T12:57:47.589Z,1.90
2022-09-04T13:02:58.879Z,2.13
2022-09-04T13:08:19.178Z,2.45
2022-09-04T13:13:34.255Z,2.72
2022-09-04T13:18:58.825Z,2.40
2022-09-04T13:24:12.805Z,2.35
2022-09-04T13:29:50.726Z,12.45
2022-09-04T13:35:25.467Z,2.30
2022-09-04T13:40:42.874Z,2.80
2022-09-04T13:45:50.029Z,2.50
2022-09-04T13:51:00.679Z,2.60
2022-09-04T13:56:12.951Z,2.95
2022-09-04T14:01:22.749Z,2.63
2022-09-04T14:06:29.972Z,2.42
2022-09-04T14:11:58.359Z,2.40
2022-09-04T14:17:00.678Z,2.67
2022-09-04T14:22:21.972Z,2.72
2022-09-04T14:28:07.301Z,2.17
2022-09-04T14:33:28.410Z,2.30
2022-09-04T14:38:59.494Z,2.22
2022-09-04T14:44:04.039Z,2.38
2022-09-04T14:49:10.067Z,2.47
2022-09-04T14:54:36.508Z,2.40
2022-09-04T14:59:45.357Z,2.20
2022-09-04T15:05:22.906Z,2.30
2022-09-04T15:10:36.442Z,2.60
2022-09-04T15:15:48.182Z,2.80
2022-09-04T15:21:06.547Z,2.65
2022-09-04T15:26:33.046Z,1.95
2022-09-04T15:31:42.354Z,2.60
2022-09-04T15:36:44.943Z,1.93
2022-09-04T15:41:50.484Z,2.55
2022-09-04T15:47:17.546Z,3.13
2022-09-04T15:52:40.069Z,2.38
2022-09-04T15:58:05.673Z,2.58
2022-09-04T16:03:36.725Z,2.17
2022-09-04T16:19:35.133Z,2.42
2022-09-04T16:24:47.770Z,2.38
2022-09-04T16:30:04.061Z,2.67
2022-09-04T16:35:19.719Z,2.28
2022-09-04T16:40:56.389Z,2.83
2022-09-04T16:46:25.737Z,2.53
2022-09-04T16:51:39.894Z,2.70
2022-09-04T16:56:50.614Z,2.70
2022-09-04T17:02:02.516Z,2.58
2022-09-04T17:07:08.229Z,3.13
2022-09-04T17:12:52.838Z,2.83
2022-09-04T17:17:56.420Z,2.85
2022-09-04T17:29:03.640Z,2.95
2022-09-04T17:29:15.825Z,3.20
2022-09-04T17:40:39.449Z,2.58
2022-09-04T17:40:47.084Z,2.85
2022-09-04T17:45:39.176Z,3.20
2022-09-04T17:50:53.600Z,2.90
2022-09-04T17:56:06.904Z,2.80
2022-09-04T18:01:35.978Z,2.50
2022-09-04T18:06:47.350Z,2.80
2022-09-04T18:12:05.480Z,2.70
2022-09-04T18:17:33.226Z,2.83
2022-09-04T18:23:02.691Z,2.65
2022-09-04T18:28:18.677Z,3.00
2022-09-04T18:37:17.998Z,3.08
2022-09-04T18:39:26.467Z,3.22
2022-09-04T18:50:23.119Z,2.95
2022-09-04T18:50:51.122Z,2.88
2022-09-04T18:55:58.097Z,3.05
2022-09-04T19:01:27.669Z,3.50
2022-09-04T19:06:32.089Z,2.90
2022-09-04T19:11:43.513Z,3.28
2022-09-04T19:16:53.101Z,3.42
2022-09-04T19:22:26.383Z,3.17
2022-09-04T19:28:10.669Z,3.65
2022-09-04T19:33:39.540Z,3.65
2022-09-04T19:45:53.854Z,3.63
2022-09-04T19:46:13.887Z,3.63
2022-09-04T19:53:18.885Z,3.90
2022-09-04T19:55:55.681Z,4.05
2022-09-04T20:01:00.782Z,4.43
2022-09-04T20:06:20.408Z,4.35
2022-09-04T20:11:35.925Z,4.20
2022-09-04T20:16:48.304Z,4.53
2022-09-04T20:22:05.607Z,4.65
2022-09-04T20:27:27.059Z,4.22
2022-09-04T20:32:55.932Z,4.75
2022-09-04T20:38:23.401Z,4.88
2022-09-04T20:43:37.982Z,4.80
2022-09-04T20:52:53.854Z,4.95
2022-09-04T20:54:43.901Z,4.85
2022-09-04T21:03:19.364Z,4.70
2022-09-04T21:05:56.382Z,5.07
2022-09-04T21:11:10.334Z,5.05
2022-09-04T21:16:56.957Z,4.30
2022-09-04T21:22:05.243Z,4.82
2022-09-04T21:27:29.285Z,5.03
2022-09-04T21:32:45.151Z,5.50
2022-09-04T21:38:13.673Z,5.47
2022-09-04T21:43:40.126Z,5.78
2022-09-04T21:49:19.609Z,5.03
2022-09-04T21:58:49.216Z,5.43
2022-09-04T22:02:36.515Z,5.90
2022-09-04T22:05:50.063Z,5.90
2022-09-04T22:13:41.545Z,5.53
2022-09-04T22:16:41.973Z,5.68
2022-09-04T22:21:49.930Z,5.63
2022-09-04T22:27:24.344Z,5.22
2022-09-04T22:33:03.443Z,6.22
2022-09-04T22:38:26.378Z,5.40
2022-09-04T22:43:46.402Z,5.85
2022-09-04T22:49:16.868Z,6.03
2022-09-04T22:54:56.047Z,5.90
2022-09-04T23:00:07.358Z,6.25
2022-09-04T23:05:22.242Z,5.43
2022-09-04T23:13:47.724Z,5.63
2022-09-04T23:16:29.019Z,5.63
2022-09-04T23:26:35.788Z,5.60
2022-09-04T23:27:13.245Z,5.57
2022-09-04T23:33:07.369Z,5.35
2022-09-04T23:38:36.164Z,6.30
2022-09-04T23:44:25.568Z,6.38
2022-09-04T23:49:53.522Z,5.80
2022-09-04T23:55:17.769Z,5.35
